createdAt,value
2017-10-05T00:00:12.750Z,-39.49
2017-10-05T00:00:53.189Z,-39.49
2017-10-05T00:01:33.615Z,-39.49
2017-10-05T00:02:14.073Z,-39.49
2017-10-05T00:02:54.497Z,-39.49
2017-10-05T00:03:34.963Z,-39.49
2017-10-05T00:05:47.697Z,14.57
2017-10-05T00:06:28.171Z,14.6
2017-10-05T00:07:08.625Z,14.54
2017-10-05T00:07:49.087Z,14.52
2017-10-05T00:08:29.528Z,14.51
2017-10-05T00:09:09.976Z,14.47
2017-10-05T00:09:50.405Z,14.52
2017-10-05T00:10:30.871Z,14.47
2017-10-05T00:11:11.352Z,14.45
2017-10-05T00:11:51.782Z,14.51
2017-10-05T00:12:32.234Z,14.46
2017-10-05T00:13:12.685Z,14.45
2017-10-05T00:13:53.123Z,14.47
2017-10-05T00:14:33.557Z,14.54
2017-10-05T00:15:20.982Z,14.55
2017-10-05T00:16:01.436Z,14.46
2017-10-05T00:16:41.839Z,14.43
2017-10-05T00:17:22.314Z,14.5
2017-10-05T00:18:02.738Z,14.52
2017-10-05T00:19:50.239Z,14.47
2017-10-05T00:20:30.740Z,14.45
2017-10-05T00:21:11.199Z,14.55
2017-10-05T00:21:51.681Z,14.46
2017-10-05T00:22:32.151Z,14.5
2017-10-05T00:23:12.573Z,14.4
2017-10-05T00:23:53.074Z,14.45
2017-10-05T00:24:33.518Z,14.52
2017-10-05T00:25:13.982Z,14.5
2017-10-05T00:25:54.394Z,14.51
2017-10-05T00:26:34.828Z,14.42
2017-10-05T00:27:15.261Z,14.43
2017-10-05T00:27:55.732Z,14.47
2017-10-05T00:28:36.204Z,14.51
2017-10-05T00:29:16.657Z,14.52
2017-10-05T00:29:57.086Z,14.57
2017-10-05T00:30:37.527Z,14.51
2017-10-05T00:31:17.994Z,14.47
2017-10-05T00:31:58.448Z,14.52
2017-10-05T00:32:38.907Z,14.54
2017-10-05T00:33:19.305Z,14.62
2017-10-05T00:33:59.743Z,14.62
2017-10-05T00:34:40.221Z,14.6
2017-10-05T00:35:20.656Z,14.65
2017-10-05T00:36:01.110Z,14.52
2017-10-05T00:36:41.557Z,14.7
2017-10-05T00:37:22.037Z,14.62
2017-10-05T00:38:02.482Z,14.62
2017-10-05T00:38:42.926Z,14.6
2017-10-05T00:39:23.369Z,14.58
2017-10-05T00:40:03.814Z,14.62
2017-10-05T00:40:44.269Z,14.61
2017-10-05T00:41:24.712Z,14.61
2017-10-05T00:42:05.161Z,14.55
2017-10-05T00:42:45.613Z,14.54
2017-10-05T00:43:26.034Z,14.61
2017-10-05T00:44:06.513Z,14.72
2017-10-05T00:44:46.991Z,14.57
2017-10-05T00:45:27.450Z,14.61
2017-10-05T00:46:07.846Z,14.62
2017-10-05T00:46:48.289Z,14.6
2017-10-05T00:47:28.728Z,14.57
2017-10-05T00:48:09.160Z,14.61
2017-10-05T00:48:49.629Z,14.52
2017-10-05T00:49:30.053Z,14.54
2017-10-05T00:50:10.560Z,14.54
2017-10-05T00:50:50.968Z,14.51
2017-10-05T00:51:31.445Z,14.57
2017-10-05T00:52:11.863Z,14.57
2017-10-05T00:52:52.478Z,14.54
2017-10-05T00:53:32.894Z,14.54
2017-10-05T00:55:10.262Z,14.45
2017-10-05T00:55:50.680Z,14.54
2017-10-05T00:56:31.159Z,14.6
2017-10-05T00:57:11.623Z,14.51
2017-10-05T00:57:52.072Z,14.77
2017-10-05T00:58:32.524Z,14.89
2017-10-05T00:59:13.020Z,14.84
2017-10-05T00:59:54.175Z,14.91
2017-10-05T01:00:34.633Z,14.99
2017-10-05T01:01:15.087Z,14.88
2017-10-05T01:01:55.521Z,14.77
2017-10-05T01:02:35.962Z,14.75
2017-10-05T01:03:16.401Z,14.69
2017-10-05T01:03:56.908Z,14.8
2017-10-05T01:04:37.300Z,14.72
2017-10-05T01:05:17.727Z,14.77
2017-10-05T01:05:58.190Z,14.78
2017-10-05T01:06:38.644Z,14.8
2017-10-05T01:07:19.083Z,14.77
2017-10-05T01:07:59.543Z,14.94
2017-10-05T01:09:46.989Z,14.77
2017-10-05T01:10:27.543Z,14.81
2017-10-05T01:11:07.918Z,14.81
2017-10-05T01:11:48.393Z,14.81
2017-10-05T01:12:28.816Z,14.86
2017-10-05T01:13:09.239Z,14.89
2017-10-05T01:13:49.727Z,14.84
2017-10-05T01:14:30.179Z,14.94
2017-10-05T01:15:10.580Z,14.94
2017-10-05T01:15:51.021Z,14.95
2017-10-05T01:18:03.698Z,14.89
2017-10-05T01:18:44.207Z,14.92
2017-10-05T01:19:24.664Z,14.8
2017-10-05T01:20:05.121Z,14.94
2017-10-05T01:20:45.516Z,14.84
2017-10-05T01:21:25.971Z,14.95
2017-10-05T01:22:06.398Z,14.91
2017-10-05T01:23:54.131Z,14.84
2017-10-05T01:24:34.442Z,14.83
2017-10-05T01:25:14.871Z,14.83
2017-10-05T01:25:55.326Z,14.96
2017-10-05T01:26:35.835Z,14.83
2017-10-05T01:27:16.288Z,14.92
2017-10-05T01:27:56.749Z,14.98
2017-10-05T01:28:37.204Z,14.91
2017-10-05T01:29:17.649Z,14.88
2017-10-05T01:29:58.091Z,14.94
2017-10-05T01:30:38.559Z,14.92
2017-10-05T01:31:19.017Z,14.91
2017-10-05T01:31:59.447Z,14.92
2017-10-05T01:32:39.903Z,15.03
2017-10-05T01:33:20.379Z,14.96
2017-10-05T01:34:00.811Z,15.02
2017-10-05T01:34:41.241Z,14.8
2017-10-05T01:35:21.671Z,14.77
2017-10-05T01:36:02.116Z,14.83
2017-10-05T01:36:42.582Z,14.83
2017-10-05T01:38:40.264Z,15.02
2017-10-05T01:39:20.679Z,14.94
2017-10-05T01:40:01.121Z,14.95
2017-10-05T01:40:41.604Z,14.94
2017-10-05T01:41:22.057Z,14.83
2017-10-05T01:42:02.484Z,14.83
2017-10-05T01:42:42.962Z,14.84
2017-10-05T01:43:23.401Z,14.99
2017-10-05T01:44:04.610Z,15.01
2017-10-05T01:44:45.057Z,14.99
2017-10-05T01:45:25.460Z,14.92
2017-10-05T01:46:06.001Z,14.95
2017-10-05T01:46:46.477Z,14.95
2017-10-05T01:48:38.980Z,14.89
2017-10-05T01:49:19.449Z,14.98
2017-10-05T01:49:59.966Z,14.94
2017-10-05T01:50:40.538Z,14.94
2017-10-05T01:51:20.883Z,14.94
2017-10-05T01:52:01.323Z,14.94
2017-10-05T01:52:41.763Z,14.96
2017-10-05T01:53:22.235Z,14.92
2017-10-05T01:54:02.627Z,14.96
2017-10-05T01:54:43.074Z,14.83
2017-10-05T01:55:23.497Z,15.02
2017-10-05T01:56:03.965Z,14.89
2017-10-05T01:56:44.380Z,14.95
2017-10-05T01:57:24.810Z,14.96
2017-10-05T01:58:05.264Z,15.01
2017-10-05T01:58:45.713Z,14.88
2017-10-05T01:59:26.199Z,15.01
2017-10-05T02:00:06.665Z,15.03
2017-10-05T02:02:19.356Z,14.84
2017-10-05T02:02:59.842Z,14.98
2017-10-05T02:03:40.257Z,15.01
2017-10-05T02:04:20.745Z,14.94
2017-10-05T02:05:01.205Z,14.92
2017-10-05T02:05:41.741Z,14.88
2017-10-05T02:06:22.195Z,14.88
2017-10-05T02:08:19.783Z,14.91
2017-10-05T02:09:00.226Z,14.98
2017-10-05T02:09:40.664Z,14.91
2017-10-05T02:10:21.133Z,14.94
2017-10-05T02:12:08.574Z,14.92
2017-10-05T02:12:49.066Z,15.02
2017-10-05T02:13:29.522Z,15.01
2017-10-05T02:14:09.979Z,14.96
2017-10-05T02:14:50.464Z,15.01
2017-10-05T02:15:30.933Z,15.02
2017-10-05T02:16:11.379Z,14.95
2017-10-05T02:16:51.847Z,14.92
2017-10-05T02:17:32.295Z,14.98
2017-10-05T02:18:12.744Z,14.98
2017-10-05T02:19:50.076Z,14.99
2017-10-05T02:20:30.580Z,14.96
2017-10-05T02:21:11.031Z,15.01
2017-10-05T02:23:24.207Z,15.25
2017-10-05T02:24:04.455Z,15.16
2017-10-05T02:24:44.925Z,15.25
2017-10-05T02:25:25.367Z,15.19
2017-10-05T02:26:05.812Z,15.23
2017-10-05T02:26:46.231Z,15.27
2017-10-05T02:27:26.689Z,15.14
2017-10-05T02:28:07.120Z,15.17
2017-10-05T02:28:47.569Z,15.17
2017-10-05T02:29:28.019Z,15.17
2017-10-05T02:30:08.460Z,15.2
2017-10-05T02:30:48.911Z,15.17
2017-10-05T02:31:29.353Z,15.17
2017-10-05T02:32:09.813Z,15.23
2017-10-05T02:32:50.243Z,15.23
2017-10-05T02:33:30.668Z,15.2
2017-10-05T02:34:11.122Z,15.23
2017-10-05T02:34:51.564Z,15.25
2017-10-05T02:35:31.958Z,15.25
2017-10-05T02:36:12.438Z,15.2
2017-10-05T02:36:52.853Z,15.2
2017-10-05T02:37:33.358Z,15.21
2017-10-05T02:39:46.147Z,15.27
2017-10-05T02:40:26.553Z,15.28
2017-10-05T02:41:06.991Z,15.16
2017-10-05T02:41:47.444Z,15.17
2017-10-05T02:42:27.892Z,15.17
2017-10-05T02:44:40.607Z,15.27
2017-10-05T02:45:21.077Z,15.34
2017-10-05T02:46:01.532Z,15.2
2017-10-05T02:46:42.025Z,15.28
2017-10-05T02:47:22.537Z,15.27
2017-10-05T02:48:02.993Z,15.27
2017-10-05T02:48:43.476Z,15.25
2017-10-05T02:49:23.932Z,15.34
2017-10-05T02:50:04.386Z,15.31
2017-10-05T02:50:44.862Z,15.35
2017-10-05T02:51:25.291Z,15.34
2017-10-05T02:52:05.712Z,15.29
2017-10-05T02:52:46.163Z,15.25
2017-10-05T02:53:26.608Z,15.14
2017-10-05T02:54:07.058Z,15.32
2017-10-05T02:54:47.552Z,15.32
2017-10-05T02:55:27.969Z,15.34
2017-10-05T02:56:08.416Z,15.25
2017-10-05T02:56:48.897Z,15.31
2017-10-05T02:57:29.344Z,15.31
2017-10-05T02:58:09.781Z,15.34
2017-10-05T02:58:50.243Z,15.34
2017-10-05T02:59:30.666Z,15.41
2017-10-05T03:00:11.100Z,15.36
2017-10-05T03:00:51.544Z,15.32
2017-10-05T03:01:31.990Z,15.34
2017-10-05T03:02:12.416Z,15.29
2017-10-05T03:02:52.827Z,15.35
2017-10-05T03:03:33.266Z,15.29
2017-10-05T03:05:10.687Z,15.35
2017-10-05T03:05:51.072Z,15.29
2017-10-05T03:06:31.510Z,15.28
2017-10-05T03:07:11.954Z,15.29
2017-10-05T03:07:52.384Z,15.27
2017-10-05T03:08:32.799Z,15.23
2017-10-05T03:09:13.259Z,15.31
2017-10-05T03:09:53.712Z,15.25
2017-10-05T03:10:34.168Z,15.41
2017-10-05T03:11:14.638Z,15.39
2017-10-05T03:11:55.061Z,15.29
2017-10-05T03:13:47.701Z,15.29
2017-10-05T03:14:28.123Z,15.32
2017-10-05T03:15:08.583Z,15.27
2017-10-05T03:15:49.036Z,15.32
2017-10-05T03:16:29.463Z,15.35
2017-10-05T03:17:09.942Z,15.34
2017-10-05T03:17:50.378Z,15.25
2017-10-05T03:18:30.848Z,15.28
2017-10-05T03:20:43.565Z,15.35
2017-10-05T03:21:24.113Z,15.29
2017-10-05T03:22:04.581Z,15.34
2017-10-05T03:22:45.005Z,15.31
2017-10-05T03:23:25.473Z,15.32
2017-10-05T03:24:05.863Z,15.29
2017-10-05T03:24:46.320Z,15.23
2017-10-05T03:25:26.732Z,15.41
2017-10-05T03:26:07.164Z,15.38
2017-10-05T03:26:47.603Z,15.31
2017-10-05T03:27:28.031Z,15.19
2017-10-05T03:28:08.440Z,15.29
2017-10-05T03:28:48.878Z,15.35
2017-10-05T03:29:29.390Z,15.27
2017-10-05T03:30:09.843Z,15.35
2017-10-05T03:30:50.268Z,15.25
2017-10-05T03:31:30.687Z,15.34
2017-10-05T03:32:11.126Z,15.2
2017-10-05T03:32:51.683Z,15.34
2017-10-05T03:33:32.155Z,15.34
2017-10-05T03:34:12.566Z,15.27
2017-10-05T03:34:53.105Z,15.28
2017-10-05T03:35:33.565Z,15.28
2017-10-05T03:36:13.962Z,15.17
2017-10-05T03:36:54.405Z,15.28
2017-10-05T03:37:34.828Z,15.19
2017-10-05T03:39:47.522Z,15.28
2017-10-05T03:40:27.959Z,15.28
2017-10-05T03:41:08.414Z,15.28
2017-10-05T03:41:48.830Z,15.16
2017-10-05T03:42:29.290Z,15.2
2017-10-05T03:44:42.027Z,15.23
2017-10-05T03:45:22.493Z,15.21
2017-10-05T03:46:02.958Z,15.07
2017-10-05T03:46:43.392Z,15.07
2017-10-05T03:47:23.838Z,-39.49
2017-10-05T03:48:04.237Z,-39.49
2017-10-05T03:48:44.696Z,-39.49
2017-10-05T03:49:25.185Z,-39.49
2017-10-05T03:50:05.608Z,-39.49
2017-10-05T03:50:46.080Z,-39.49
2017-10-05T03:51:26.529Z,-39.49
2017-10-05T03:52:06.995Z,-39.49
2017-10-05T03:52:47.449Z,-39.49
2017-10-05T03:53:27.890Z,-39.49
2017-10-05T03:54:08.281Z,-39.49
2017-10-05T03:54:49.303Z,-39.49
2017-10-05T03:55:29.784Z,-39.49
2017-10-05T03:56:10.212Z,-39.49
2017-10-05T03:56:50.673Z,-39.49
2017-10-05T03:57:31.066Z,-39.49
2017-10-05T03:58:11.502Z,-39.49
2017-10-05T03:58:51.982Z,-39.49
2017-10-05T03:59:32.466Z,-39.49
2017-10-05T04:00:12.962Z,-39.49
2017-10-05T04:00:53.415Z,-39.49
2017-10-05T04:01:33.828Z,-39.49
2017-10-05T04:02:14.300Z,-39.49
2017-10-05T04:02:54.816Z,-39.49
2017-10-05T04:03:35.257Z,-39.49
2017-10-05T04:04:15.696Z,-39.49
2017-10-05T04:04:56.131Z,-39.49
2017-10-05T04:05:36.593Z,-39.49
2017-10-05T04:06:17.055Z,-39.49
2017-10-05T04:06:57.511Z,-39.49
2017-10-05T04:09:10.221Z,15.19
2017-10-05T04:09:50.680Z,15.17
2017-10-05T04:10:31.135Z,15.19
2017-10-05T04:11:11.618Z,15.11
2017-10-05T04:11:52.069Z,15.09
2017-10-05T04:12:32.500Z,15.07
2017-10-05T04:13:12.936Z,15.11
2017-10-05T04:15:00.381Z,15.16
2017-10-05T04:15:40.872Z,15.13
2017-10-05T04:16:21.336Z,15.06
2017-10-05T04:17:01.809Z,15.14
2017-10-05T04:17:42.263Z,15.13
2017-10-05T04:18:22.674Z,15.17
2017-10-05T04:19:03.126Z,15.06
2017-10-05T04:19:43.564Z,15.16
2017-10-05T04:21:31.034Z,15.19
2017-10-05T04:22:11.496Z,15.19
2017-10-05T04:22:51.982Z,15.16
2017-10-05T04:23:32.495Z,15.13
2017-10-05T04:24:12.947Z,15.14
2017-10-05T04:24:53.401Z,15.09
2017-10-05T04:25:33.837Z,15.14
2017-10-05T04:26:14.255Z,14.99
2017-10-05T04:26:54.700Z,15.16
2017-10-05T04:27:35.221Z,15.02
2017-10-05T04:28:15.601Z,15.03
2017-10-05T04:28:56.051Z,15.1
2017-10-05T04:29:36.471Z,15.19
2017-10-05T04:30:16.895Z,15.19
2017-10-05T04:30:57.310Z,15.17
2017-10-05T04:31:37.766Z,15.09
2017-10-05T04:32:18.220Z,15.23
2017-10-05T04:32:58.679Z,15.25
2017-10-05T04:33:39.154Z,15.17
2017-10-05T04:34:19.551Z,15.07
2017-10-05T04:35:00.025Z,15.13
2017-10-05T04:35:40.995Z,15.17
2017-10-05T04:36:21.443Z,15.19
2017-10-05T04:37:01.861Z,15.14
2017-10-05T04:37:42.281Z,15.01
2017-10-05T04:38:22.744Z,15.16
2017-10-05T04:39:03.240Z,15.19
2017-10-05T04:39:43.680Z,15.34
2017-10-05T04:40:24.120Z,15.2
2017-10-05T04:41:04.624Z,15.17
2017-10-05T04:41:45.073Z,15.16
2017-10-05T04:42:25.489Z,15.11
2017-10-05T04:43:05.989Z,15.21
2017-10-05T04:43:46.471Z,15.19
2017-10-05T04:44:26.920Z,15.06
2017-10-05T04:45:07.357Z,14.99
2017-10-05T04:45:47.786Z,15.16
2017-10-05T04:46:28.226Z,15.21
2017-10-05T04:47:08.679Z,15.17
2017-10-05T04:47:49.977Z,15.02
2017-10-05T04:48:30.425Z,15.06
2017-10-05T04:49:10.884Z,15.14
2017-10-05T04:49:51.328Z,15.07
2017-10-05T04:50:31.779Z,15.06
2017-10-05T04:51:12.230Z,14.94
2017-10-05T04:51:52.685Z,15.09
2017-10-05T04:52:33.111Z,15.02
2017-10-05T04:53:13.542Z,14.94
2017-10-05T04:53:54.004Z,14.98
2017-10-05T04:54:34.466Z,15.02
2017-10-05T04:55:14.946Z,15.09
2017-10-05T04:55:55.408Z,14.96
2017-10-05T04:56:35.839Z,14.91
2017-10-05T04:57:16.334Z,14.99
2017-10-05T04:57:56.812Z,14.99
2017-10-05T04:58:37.251Z,14.99
2017-10-05T04:59:18.537Z,15.02
2017-10-05T04:59:58.988Z,14.99
2017-10-05T05:00:39.433Z,14.92
2017-10-05T05:01:19.862Z,14.98
2017-10-05T05:02:00.329Z,14.88
2017-10-05T05:02:40.769Z,14.98
2017-10-05T05:03:21.229Z,14.86
2017-10-05T05:04:01.690Z,14.89
2017-10-05T05:04:42.127Z,15.01
2017-10-05T05:05:22.571Z,14.96
2017-10-05T05:06:03.013Z,14.96
2017-10-05T05:06:43.474Z,15.02
2017-10-05T05:07:23.988Z,15.01
2017-10-05T05:08:04.375Z,14.96
2017-10-05T05:08:44.821Z,14.99
2017-10-05T05:09:25.255Z,14.92
2017-10-05T05:10:05.745Z,14.98
2017-10-05T05:10:46.200Z,14.91
2017-10-05T05:11:26.676Z,15.02
2017-10-05T05:12:07.061Z,14.95
2017-10-05T05:12:47.479Z,14.94
2017-10-05T05:13:27.906Z,15.03
2017-10-05T05:14:08.342Z,14.99
2017-10-05T05:14:48.838Z,14.98
2017-10-05T05:15:29.218Z,14.96
2017-10-05T05:16:09.705Z,14.92
2017-10-05T05:16:50.144Z,14.83
2017-10-05T05:17:30.592Z,14.95
2017-10-05T05:18:11.012Z,14.98
2017-10-05T05:18:51.568Z,14.96
2017-10-05T05:19:31.952Z,14.91
2017-10-05T05:20:12.374Z,14.99
2017-10-05T05:20:52.806Z,14.86
2017-10-05T05:21:33.264Z,14.94
2017-10-05T05:22:13.719Z,14.95
2017-10-05T05:22:54.158Z,14.86
2017-10-05T05:23:34.571Z,14.84
2017-10-05T05:24:15.001Z,14.89
2017-10-05T05:24:55.442Z,14.88
2017-10-05T05:25:35.982Z,14.94
2017-10-05T05:26:16.445Z,15.02
2017-10-05T05:26:57.736Z,14.91
2017-10-05T05:27:38.182Z,14.94
2017-10-05T05:28:18.616Z,14.96
2017-10-05T05:28:59.034Z,14.96
2017-10-05T05:31:11.723Z,14.96
2017-10-05T05:31:52.198Z,14.89
2017-10-05T05:32:32.740Z,14.92
2017-10-05T05:33:13.225Z,14.98
2017-10-05T05:33:53.729Z,15.01
2017-10-05T05:34:34.288Z,14.98
2017-10-05T05:35:14.785Z,14.95
2017-10-05T05:35:55.226Z,14.96
2017-10-05T05:36:36.518Z,14.99
2017-10-05T05:37:16.986Z,15.1
2017-10-05T05:37:57.441Z,15.07
2017-10-05T05:38:37.860Z,15.03
2017-10-05T05:39:18.305Z,15.02
2017-10-05T05:39:58.810Z,15.13
2017-10-05T05:40:39.245Z,15.02
2017-10-05T05:41:19.667Z,15.07
2017-10-05T05:42:00.084Z,15.1
2017-10-05T05:42:40.567Z,15.19
2017-10-05T05:43:21.003Z,15.16
2017-10-05T05:44:01.441Z,15.06
2017-10-05T05:44:42.600Z,14.99
2017-10-05T05:46:55.341Z,15.19
2017-10-05T05:47:35.844Z,15.07
2017-10-05T05:48:16.305Z,15.1
2017-10-05T05:48:56.776Z,15.25
2017-10-05T05:49:37.268Z,15.25
2017-10-05T05:50:17.792Z,15.14
2017-10-05T05:50:58.218Z,15.09
2017-10-05T05:51:38.658Z,15.13
2017-10-05T05:52:19.145Z,15.19
2017-10-05T05:52:59.579Z,15.27
2017-10-05T05:54:47.024Z,15.16
2017-10-05T05:55:27.550Z,15.2
2017-10-05T05:56:07.960Z,15.16
2017-10-05T05:56:48.392Z,15.21
2017-10-05T05:57:28.884Z,15.16
2017-10-05T05:58:09.294Z,15.23
2017-10-05T05:59:46.632Z,15.29
2017-10-05T06:00:27.138Z,15.25
2017-10-05T06:01:07.591Z,15.31
2017-10-05T06:01:48.017Z,15.2
2017-10-05T06:02:28.472Z,15.23
2017-10-05T06:03:08.982Z,15.27
2017-10-05T06:03:49.431Z,15.29
2017-10-05T06:04:29.891Z,15.34
2017-10-05T06:05:10.350Z,15.27
2017-10-05T06:05:50.765Z,15.35
2017-10-05T06:06:31.252Z,15.31
2017-10-05T06:07:11.723Z,15.17
2017-10-05T06:07:52.167Z,15.19
2017-10-05T06:08:32.624Z,15.31
2017-10-05T06:09:13.073Z,15.21
2017-10-05T06:09:53.486Z,15.36
2017-10-05T06:10:33.961Z,15.27
2017-10-05T06:11:14.410Z,15.32
2017-10-05T06:13:01.854Z,15.25
2017-10-05T06:13:42.372Z,15.31
2017-10-05T06:14:22.820Z,15.38
2017-10-05T06:15:03.273Z,15.31
2017-10-05T06:15:43.722Z,15.38
2017-10-05T06:16:24.173Z,15.36
2017-10-05T06:17:04.639Z,15.32
2017-10-05T06:17:45.128Z,15.31
2017-10-05T06:18:25.587Z,15.32
2017-10-05T06:19:06.017Z,15.36
2017-10-05T06:19:46.470Z,15.43
2017-10-05T06:20:26.916Z,15.43
2017-10-05T06:21:07.353Z,15.41
2017-10-05T06:21:47.835Z,15.38
2017-10-05T06:22:28.296Z,15.31
2017-10-05T06:23:08.755Z,15.38
2017-10-05T06:23:49.200Z,15.39
2017-10-05T06:24:29.621Z,15.34
2017-10-05T06:25:10.171Z,15.46
2017-10-05T06:25:50.607Z,15.38
2017-10-05T06:26:31.030Z,15.54
2017-10-05T06:27:11.466Z,15.46
2017-10-05T06:27:51.972Z,15.5
2017-10-05T06:28:32.417Z,15.57
2017-10-05T06:29:12.881Z,15.54
2017-10-05T06:29:53.448Z,15.56
2017-10-05T06:30:33.923Z,15.53
2017-10-05T06:31:14.364Z,15.54
2017-10-05T06:31:54.809Z,15.6
2017-10-05T06:32:35.742Z,15.57
2017-10-05T06:33:16.176Z,15.64
2017-10-05T06:33:56.647Z,15.57
2017-10-05T06:34:37.093Z,15.65
2017-10-05T06:35:17.545Z,15.67
2017-10-05T06:35:58.022Z,15.72
2017-10-05T06:36:38.545Z,15.67
2017-10-05T06:37:18.988Z,15.67
2017-10-05T06:37:59.404Z,15.65
2017-10-05T06:38:39.912Z,15.69
2017-10-05T06:39:20.347Z,15.62
2017-10-05T06:40:00.862Z,15.68
2017-10-05T06:40:41.276Z,15.71
2017-10-05T06:41:21.701Z,15.65
2017-10-05T06:42:02.131Z,15.65
2017-10-05T06:42:42.641Z,15.71
2017-10-05T06:43:23.045Z,15.75
2017-10-05T06:44:03.497Z,15.76
2017-10-05T06:44:43.974Z,15.8
2017-10-05T06:45:24.374Z,15.68
2017-10-05T06:46:04.833Z,15.78
2017-10-05T06:46:45.259Z,15.8
2017-10-05T06:47:25.696Z,15.78
2017-10-05T06:48:06.169Z,15.74
2017-10-05T06:48:46.609Z,15.93
2017-10-05T06:50:23.942Z,15.97
2017-10-05T06:51:04.433Z,15.96
2017-10-05T06:51:44.888Z,15.97
2017-10-05T06:52:25.359Z,15.97
2017-10-05T06:53:05.909Z,16
2017-10-05T06:53:46.380Z,16.05
2017-10-05T06:54:26.874Z,16.21
2017-10-05T06:55:07.378Z,16.09
2017-10-05T06:55:47.848Z,16.25
2017-10-05T06:56:28.352Z,16.08
2017-10-05T06:57:08.827Z,16.08
2017-10-05T06:57:49.337Z,16.09
2017-10-05T06:58:29.786Z,16.04
2017-10-05T06:59:10.250Z,16.27
2017-10-05T06:59:50.768Z,16.27
2017-10-05T07:01:43.287Z,16.25
2017-10-05T07:02:23.723Z,16.15
2017-10-05T07:03:04.220Z,16.27
2017-10-05T07:03:44.750Z,16.24
2017-10-05T07:04:25.203Z,16.17
2017-10-05T07:05:05.648Z,16.28
2017-10-05T07:05:46.122Z,16.38
2017-10-05T07:06:26.670Z,16.33
2017-10-05T07:07:07.152Z,16.39
2017-10-05T07:07:47.594Z,16.43
2017-10-05T07:08:28.086Z,16.45
2017-10-05T07:09:08.547Z,16.45
2017-10-05T07:09:49.008Z,16.3
2017-10-05T07:13:14.322Z,16.63
2017-10-05T07:13:54.801Z,16.86
2017-10-05T07:14:35.300Z,16.97
2017-10-05T07:15:15.749Z,17
2017-10-05T07:15:56.225Z,16.96
2017-10-05T07:16:36.972Z,17
2017-10-05T07:17:17.493Z,16.81
2017-10-05T07:17:58.042Z,17
2017-10-05T07:19:45.500Z,17.06
2017-10-05T07:20:26.029Z,17.06
2017-10-05T07:21:06.634Z,17.06
2017-10-05T07:21:47.073Z,17.23
2017-10-05T07:22:27.569Z,17.19
2017-10-05T07:23:08.087Z,17.26
2017-10-05T07:23:48.490Z,17.19
2017-10-05T07:24:28.954Z,17.41
2017-10-05T07:25:09.463Z,17.37
2017-10-05T07:25:49.916Z,17.31
2017-10-05T07:26:30.425Z,17.55
2017-10-05T07:28:43.178Z,17.82
2017-10-05T07:29:23.679Z,18.21
2017-10-05T07:31:21.364Z,18.85
2017-10-05T07:32:01.840Z,19.07
2017-10-05T07:32:42.323Z,19.23
2017-10-05T07:33:22.801Z,19.32
2017-10-05T07:34:03.373Z,19.44
2017-10-05T07:34:43.976Z,19.56
2017-10-05T07:35:24.370Z,19.36
2017-10-05T07:36:04.829Z,19.29
2017-10-05T07:36:45.305Z,19.21
2017-10-05T07:37:25.808Z,19.18
2017-10-05T07:38:06.243Z,19.19
2017-10-05T07:38:46.731Z,18.75
2017-10-05T07:39:27.192Z,18.95
2017-10-05T07:40:07.744Z,18.91
2017-10-05T07:40:48.229Z,18.98
2017-10-05T07:42:25.604Z,18.35
2017-10-05T07:43:06.119Z,18.29
2017-10-05T07:43:46.607Z,18.29
2017-10-05T07:44:27.032Z,18.2
2017-10-05T07:45:07.554Z,18.33
2017-10-05T07:45:48.111Z,18.17
2017-10-05T07:46:28.667Z,18.27
2017-10-05T07:47:09.222Z,18.39
2017-10-05T07:47:49.828Z,18.33
2017-10-05T07:48:30.412Z,18.37
2017-10-05T07:49:10.908Z,18.21
2017-10-05T07:49:51.388Z,18.1
2017-10-05T07:50:31.980Z,18.11
2017-10-05T07:51:12.473Z,18.17
2017-10-05T07:52:49.839Z,18.32
2017-10-05T07:53:30.386Z,18.15
2017-10-05T07:54:10.906Z,18.29
2017-10-05T07:54:51.432Z,18.26
2017-10-05T07:55:31.964Z,18.23
2017-10-05T07:56:12.510Z,18.3
2017-10-05T07:56:52.968Z,18.12
2017-10-05T07:57:33.431Z,18.07
2017-10-05T07:58:13.898Z,18.17
2017-10-05T07:58:54.365Z,18.26
2017-10-05T07:59:34.847Z,18.17
2017-10-05T08:00:15.332Z,18.37
2017-10-05T08:00:56.047Z,18.5
2017-10-05T08:01:36.372Z,18.36
2017-10-05T08:02:16.821Z,18.32
2017-10-05T08:02:57.252Z,18.37
2017-10-05T08:03:37.678Z,18.33
2017-10-05T08:04:18.117Z,18.27
2017-10-05T08:04:58.561Z,18.44
2017-10-05T08:05:39.031Z,18.41
2017-10-05T08:06:19.503Z,18.07
2017-10-05T08:08:32.223Z,18.76
2017-10-05T08:09:13.200Z,19.1
2017-10-05T08:09:53.999Z,19.33
2017-10-05T08:10:34.488Z,19.73
2017-10-05T08:11:14.959Z,20.01
2017-10-05T08:11:55.408Z,20.24
2017-10-05T08:12:35.900Z,20.43
2017-10-05T08:13:16.349Z,20.87
2017-10-05T08:13:56.785Z,21.12
2017-10-05T08:14:37.262Z,21.13
2017-10-05T08:15:17.773Z,21.64
2017-10-05T08:15:58.238Z,21.71
2017-10-05T08:18:10.957Z,21.82
2017-10-05T08:18:51.472Z,21.86
2017-10-05T08:19:32.031Z,21.69
2017-10-05T08:20:12.592Z,21.32
2017-10-05T08:20:52.989Z,20.99
2017-10-05T08:21:33.546Z,20.99
2017-10-05T08:22:14.004Z,20.85
2017-10-05T08:22:54.508Z,20.82
2017-10-05T08:24:52.132Z,20.26
2017-10-05T08:25:32.620Z,20.36
2017-10-05T08:26:13.113Z,20.06
2017-10-05T08:26:53.634Z,20.17
2017-10-05T08:27:34.088Z,20.41
2017-10-05T08:28:14.621Z,20.64
2017-10-05T08:28:55.157Z,20.5
2017-10-05T08:29:35.762Z,20.8
2017-10-05T08:30:16.183Z,20.95
2017-10-05T08:30:56.683Z,21.17
2017-10-05T08:31:37.822Z,20.98
2017-10-05T08:32:18.300Z,21.07
2017-10-05T08:32:58.894Z,20.97
2017-10-05T08:33:39.362Z,21.16
2017-10-05T08:34:19.824Z,21.4
2017-10-05T08:35:00.389Z,21.32
2017-10-05T08:35:41.850Z,-39.49
2017-10-05T08:36:22.374Z,-39.49
2017-10-05T08:37:02.846Z,-39.49
2017-10-05T08:38:40.286Z,21.72
2017-10-05T08:39:20.800Z,-39.49
2017-10-05T08:40:01.345Z,-39.49
2017-10-05T08:40:41.859Z,-39.49
2017-10-05T08:41:22.431Z,-39.49
2017-10-05T08:42:02.925Z,-39.49
2017-10-05T08:42:43.394Z,-39.49
2017-10-05T08:43:23.876Z,-39.49
2017-10-05T08:44:04.412Z,-39.49
2017-10-05T08:44:44.912Z,-39.49
2017-10-05T08:46:22.357Z,21.47
2017-10-05T08:47:02.785Z,-39.49
2017-10-05T08:47:43.276Z,-39.49
2017-10-05T08:48:23.776Z,-39.49
2017-10-05T08:49:04.203Z,-39.49
2017-10-05T08:49:44.706Z,-39.49
2017-10-05T08:50:25.836Z,-39.49
2017-10-05T08:51:06.315Z,-39.49
2017-10-05T08:51:46.786Z,-39.49
2017-10-05T08:52:27.264Z,-39.49
2017-10-05T08:53:07.770Z,-39.49
2017-10-05T08:53:48.312Z,-39.49
2017-10-05T08:54:28.803Z,-39.49
2017-10-05T08:55:09.255Z,-39.49
2017-10-05T08:55:49.703Z,-39.49
2017-10-05T08:56:30.202Z,-39.49
2017-10-05T08:57:10.689Z,-39.49
2017-10-05T08:57:51.882Z,-39.49
2017-10-05T08:58:32.407Z,-39.49
2017-10-05T08:59:12.956Z,-39.49
2017-10-05T08:59:53.408Z,-39.49
2017-10-05T09:00:33.927Z,-39.49
2017-10-05T09:01:14.402Z,-39.49
2017-10-05T09:01:54.859Z,-39.49
2017-10-05T09:02:35.362Z,-39.49
2017-10-05T09:03:15.857Z,-39.49
2017-10-05T09:03:56.393Z,-39.49
2017-10-05T09:04:36.996Z,-39.49
2017-10-05T09:05:17.474Z,-39.49
2017-10-05T09:05:57.925Z,-39.49
2017-10-05T09:07:35.273Z,20.03
2017-10-05T09:08:15.713Z,-39.49
2017-10-05T09:08:56.157Z,-39.49
2017-10-05T09:09:36.637Z,-39.49
2017-10-05T09:10:17.094Z,-39.49
2017-10-05T09:10:57.613Z,-39.49
2017-10-05T09:11:38.094Z,-39.49
2017-10-05T09:12:18.617Z,-39.49
2017-10-05T09:12:59.079Z,-39.49
2017-10-05T09:13:39.550Z,-39.49
2017-10-05T09:14:20.003Z,-39.49
2017-10-05T09:15:57.348Z,20.18
2017-10-05T09:16:37.910Z,-39.49
2017-10-05T09:17:18.343Z,-39.49
2017-10-05T09:17:58.748Z,-39.49
2017-10-05T09:20:11.675Z,20.38
2017-10-05T09:20:52.235Z,20.2
2017-10-05T09:21:32.730Z,20.13
2017-10-05T09:22:13.220Z,20.03
2017-10-05T09:22:53.669Z,20.24
2017-10-05T09:23:34.145Z,20.54
2017-10-05T09:24:14.594Z,20.47
2017-10-05T09:24:55.081Z,20.52
2017-10-05T09:25:35.579Z,20.57
2017-10-05T09:26:16.104Z,20.21
2017-10-05T09:26:56.582Z,20.24
2017-10-05T09:27:37.044Z,-39.49
2017-10-05T09:28:17.479Z,-39.49
2017-10-05T09:28:57.941Z,-39.49
2017-10-05T09:30:55.635Z,20.54
2017-10-05T09:31:36.232Z,-39.49
2017-10-05T09:32:16.640Z,-39.49
2017-10-05T09:32:57.338Z,-39.49
2017-10-05T09:33:38.549Z,-39.49
2017-10-05T09:34:19.910Z,-39.49
2017-10-05T09:35:00.543Z,-39.49
2017-10-05T09:35:41.751Z,-39.49
2017-10-05T09:36:22.257Z,-39.49
2017-10-05T09:37:02.727Z,-39.49
2017-10-05T09:37:43.168Z,-39.49
2017-10-05T09:38:23.733Z,-39.49